Time;durP1;ratioP1;P1;durP2;ratioP2;P2;SDS_P1;SDS_P2;PMS_P1;PMS_P2;Temp;Humidity;BMP_temperature;BMP_pressure;BME280_temperature;BME280_humidity;BME280_pressure;Samples;Min_cycle;Max_cycle;Signal;HPM_P1;HPM_P2
2023/09/07 00:00:31;;;;;;;5.97;1.58;;;;;;;18.02;50.63;102214.00;5002821;28;20095;-67
2023/09/07 00:02:56;;;;;;;2.17;1.40;;;;;;;18.04;50.05;102212.16;5000741;28;20112;-66
2023/09/07 00:05:22;;;;;;;2.05;1.38;;;;;;;18.08;50.24;102209.38;5020947;28;20048;-66
2023/09/07 00:07:47;;;;;;;4.15;1.35;;;;;;;18.09;50.34;102208.41;5020117;28;20049;-67
2023/09/07 00:10:13;;;;;;;2.83;1.30;;;;;;;18.08;50.34;102212.00;5021434;28;20037;-66
2023/09/07 00:12:39;;;;;;;2.17;1.48;;;;;;;18.14;49.92;102203.75;5018354;28;20621;-66
2023/09/07 00:15:07;;;;;;;5.00;2.10;;;;;;;18.09;50.21;102203.97;5022351;28;20040;-66
2023/09/07 00:17:32;;;;;;;1.92;1.42;;;;;;;18.04;50.22;102206.84;5022441;28;20124;-66
2023/09/07 00:19:58;;;;;;;1.67;0.80;;;;;;;17.93;50.21;102197.75;5041243;28;20036;-65
2023/09/07 00:22:25;;;;;;;2.70;1.98;;;;;;;17.86;50.40;102202.50;5023489;28;20033;-67
2023/09/07 00:24:51;;;;;;;3.58;1.45;;;;;;;17.79;50.60;102201.09;5040668;28;20032;-66
2023/09/07 00:27:16;;;;;;;3.67;1.42;;;;;;;17.77;50.63;102197.69;5037344;28;20032;-67
2023/09/07 00:29:42;;;;;;;3.25;1.67;;;;;;;17.81;50.50;102196.59;5023229;28;20031;-67
2023/09/07 00:32:07;;;;;;;3.50;1.65;;;;;;;17.79;50.57;102198.47;5029920;28;20043;-64
2023/09/07 00:34:33;;;;;;;4.03;1.25;;;;;;;17.74;50.44;102197.81;5035002;28;20040;-63
2023/09/07 00:37:00;;;;;;;2.30;1.35;;;;;;;17.63;51.01;102195.72;5044734;28;20035;-66
2023/09/07 00:39:25;;;;;;;3.55;1.17;;;;;;;17.49;51.33;102199.00;5036147;28;20174;-66
2023/09/07 00:41:51;;;;;;;1.23;0.93;;;;;;;17.39;51.61;102200.38;5041559;28;20123;-67
2023/09/07 00:44:17;;;;;;;2.33;1.80;;;;;;;17.30;51.98;102204.31;5005143;28;20041;-67
2023/09/07 00:46:44;;;;;;;1.73;1.45;;;;;;;17.37;51.52;102196.94;5035947;28;20458;-67
2023/09/07 00:49:12;;;;;;;2.15;1.40;;;;;;;17.35;51.41;102201.44;5037640;28;20255;-67
2023/09/07 00:51:37;;;;;;;3.72;2.45;;;;;;;17.24;52.05;102204.59;5031340;28;20036;-66
2023/09/07 00:54:03;;;;;;;2.47;1.45;;;;;;;17.19;51.89;102196.88;5043490;28;20526;-66
2023/09/07 00:56:29;;;;;;;1.50;1.40;;;;;;;17.17;51.94;102193.47;5023225;28;20120;-65
2023/09/07 00:58:56;;;;;;;3.53;1.30;;;;;;;17.12;51.98;102192.84;5038500;28;20498;-66
2023/09/07 01:01:23;;;;;;;2.67;1.15;;;;;;;17.10;52.36;102192.03;5026824;28;20119;-65
2023/09/07 01:03:50;;;;;;;2.03;1.15;;;;;;;17.08;52.03;102191.25;5028952;28;20105;-66
2023/09/07 01:06:20;;;;;;;1.70;1.33;;;;;;;16.94;52.12;102193.69;5039073;28;20041;-65
2023/09/07 01:08:49;;;;;;;1.83;1.40;;;;;;;16.91;52.51;102193.81;5020955;28;20646;-65
2023/09/07 01:11:15;;;;;;;5.10;1.65;;;;;;;16.75;52.69;102197.16;5027407;28;20040;-65
2023/09/07 01:13:42;;;;;;;2.40;1.40;;;;;;;16.80;52.49;102195.19;5025840;28;20608;-66
2023/09/07 01:16:10;;;;;;;2.17;1.98;;;;;;;16.77;53.00;102197.94;5023915;28;20122;-66
2023/09/07 01:18:37;;;;;;;7.03;2.17;;;;;;;16.78;52.73;102201.47;5039753;28;20086;-67
2023/09/07 01:21:08;;;;;;;4.57;1.88;;;;;;;16.77;52.72;102195.31;5013119;28;20124;-66
2023/09/07 01:23:39;;;;;;;2.00;1.50;;;;;;;16.73;52.97;102196.38;5035753;28;20155;-66
2023/09/07 01:26:08;;;;;;;4.35;1.90;;;;;;;16.64;53.64;102188.84;5030908;28;20084;-66
2023/09/07 01:28:34;;;;;;;2.75;1.52;;;;;;;16.70;53.02;102196.47;5040137;28;20063;-69
2023/09/07 01:31:01;;;;;;;2.25;1.95;;;;;;;16.67;52.68;102187.88;5013978;28;20112;-68
2023/09/07 01:33:27;;;;;;;1.67;0.95;;;;;;;16.65;52.82;102187.94;5052823;28;20052;-68
2023/09/07 01:35:52;;;;;;;1.85;1.48;;;;;;;16.52;52.76;102194.69;5039223;28;20040;-68
2023/09/07 01:38:18;;;;;;;2.92;1.27;;;;;;;16.42;53.23;102189.81;5039403;28;20108;-68
2023/09/07 01:40:44;;;;;;;1.92;1.50;;;;;;;16.31;53.21;102189.44;5040101;28;20024;-72
2023/09/07 01:43:10;;;;;;;1.30;1.00;;;;;;;16.22;53.58;102189.81;5028639;28;20042;-71
2023/09/07 01:45:35;;;;;;;2.55;1.40;;;;;;;16.26;53.34;102187.88;5033582;28;20038;-71
2023/09/07 01:48:03;;;;;;;2.75;1.20;;;;;;;16.27;53.02;102190.47;5032123;28;20066;-70
2023/09/07 01:50:30;;;;;;;2.35;1.40;;;;;;;16.32;53.13;102185.00;5039042;28;20626;-73
2023/09/07 01:52:55;;;;;;;1.80;1.08;;;;;;;16.28;53.47;102191.31;5021380;28;20040;-73
2023/09/07 01:55:21;;;;;;;2.33;1.38;;;;;;;16.34;53.01;102193.72;5022849;28;20036;-73
2023/09/07 01:57:46;;;;;;;1.92;1.50;;;;;;;16.25;53.13;102189.69;5038088;28;20311;-73
2023/09/07 02:00:12;;;;;;;2.88;1.55;;;;;;;16.23;53.35;102195.94;5040083;28;20098;-72
2023/09/07 02:02:41;;;;;;;3.35;1.30;;;;;;;16.15;53.26;102197.16;5053367;28;20070;-73
2023/09/07 02:05:06;;;;;;;2.10;1.20;;;;;;;16.04;53.50;102199.38;5042382;28;20032;-72
2023/09/07 02:07:32;;;;;;;4.75;1.67;;;;;;;15.98;54.17;102199.59;5005401;28;20044;-72
2023/09/07 02:09:57;;;;;;;2.72;1.98;;;;;;;16.00;54.19;102193.38;5038141;28;20080;-73
2023/09/07 02:12:23;;;;;;;2.17;1.70;;;;;;;16.01;54.71;102204.75;5021193;28;20568;-73
2023/09/07 02:14:48;;;;;;;2.78;2.50;;;;;;;16.08;54.42;102205.38;5038223;28;20388;-73
2023/09/07 02:17:17;;;;;;;2.22;2.03;;;;;;;16.24;53.97;102205.56;5040695;28;20083;-73
2023/09/07 02:19:44;;;;;;;4.05;1.83;;;;;;;16.35;53.72;102201.56;5037930;28;20035;-73
2023/09/07 02:22:10;;;;;;;3.95;2.00;;;;;;;16.47;53.30;102201.94;5041667;28;20041;-73
2023/09/07 02:24:36;;;;;;;3.25;2.42;;;;;;;16.56;53.45;102196.25;5008022;28;20036;-73
2023/09/07 02:27:01;;;;;;;2.53;2.33;;;;;;;16.65;52.79;102195.84;5025392;28;20025;-73
2023/09/07 02:29:27;;;;;;;3.45;2.20;;;;;;;16.58;52.92;102200.53;5037879;28;20628;-73
2023/09/07 02:31:53;;;;;;;3.45;2.40;;;;;;;16.63;52.62;102193.25;5028858;28;20043;-66
2023/09/07 02:34:19;;;;;;;3.25;2.10;;;;;;;16.56;52.40;102189.19;5022337;28;20044;-66
2023/09/07 02:36:45;;;;;;;2.55;2.03;;;;;;;16.47;52.87;102194.03;5019053;28;20036;-66
2023/09/07 02:39:11;;;;;;;3.05;1.70;;;;;;;16.38;52.93;102188.22;5022705;28;20083;-65
2023/09/07 02:41:38;;;;;;;2.22;1.38;;;;;;;16.33;52.85;102200.78;5023788;28;20425;-66
2023/09/07 02:44:04;;;;;;;4.35;2.15;;;;;;;16.24;52.83;102187.94;5028685;28;20064;-66
2023/09/07 02:46:29;;;;;;;2.50;1.77;;;;;;;16.13;53.35;102187.56;5035239;28;20059;-66
2023/09/07 02:48:57;;;;;;;2.33;1.98;;;;;;;16.00;53.35;102192.50;5019722;28;20200;-67
2023/09/07 02:51:24;;;;;;;2.80;1.63;;;;;;;15.97;53.71;102189.97;5026505;28;20037;-67
2023/09/07 02:53:51;;;;;;;2.65;2.10;;;;;;;15.86;53.76;102195.66;5021145;28;20032;-67
2023/09/07 02:56:17;;;;;;;3.65;1.77;;;;;;;15.87;53.94;102186.00;5038726;28;20063;-67
2023/09/07 02:58:45;;;;;;;3.70;2.10;;;;;;;15.75;54.43;102188.22;5001800;28;20040;-67
2023/09/07 03:01:10;;;;;;;4.00;1.92;;;;;;;15.71;54.26;102191.06;5042202;28;20037;-67
2023/09/07 03:03:37;;;;;;;2.42;2.15;;;;;;;15.70;54.61;102190.19;5032919;28;20040;-67
2023/09/07 03:06:11;;;;;;;3.63;2.78;;;;;;;15.67;55.21;102192.09;5016017;28;20035;-68
2023/09/07 03:08:40;;;;;;;2.08;1.75;;;;;;;15.68;54.79;102191.16;5019288;28;20060;-67
2023/09/07 03:11:07;;;;;;;2.88;1.63;;;;;;;15.66;54.67;102195.63;5028697;28;20036;-68
2023/09/07 03:13:33;;;;;;;2.28;1.73;;;;;;;15.59;55.05;102193.28;5023942;28;20045;-67
2023/09/07 03:15:59;;;;;;;3.90;3.22;;;;;;;15.57;55.91;102194.22;5023663;28;20094;-68
2023/09/07 03:18:24;;;;;;;3.22;2.83;;;;;;;15.58;55.73;102186.28;5029128;28;20711;-71
2023/09/07 03:20:51;;;;;;;3.47;3.10;;;;;;;15.65;56.19;102191.31;5038377;28;20469;-71
2023/09/07 03:23:16;;;;;;;5.13;4.22;;;;;;;15.64;56.22;102194.84;5053804;28;20082;-71
2023/09/07 03:25:43;;;;;;;3.65;3.35;;;;;;;15.69;56.03;102199.03;5025759;28;20078;-71
2023/09/07 03:28:08;;;;;;;3.20;2.70;;;;;;;15.77;55.71;102203.97;5020361;28;20048;-71
2023/09/07 03:30:35;;;;;;;3.83;3.38;;;;;;;15.73;55.72;102202.41;5034776;28;20082;-71
2023/09/07 03:33:05;;;;;;;6.30;2.75;;;;;;;15.78;55.58;102201.28;5056023;28;20098;-73
2023/09/07 03:35:31;;;;;;;4.43;4.00;;;;;;;15.81;55.52;102200.28;5047606;28;20396;-73
2023/09/07 03:37:57;;;;;;;6.45;2.83;;;;;;;15.89;55.51;102195.56;5060939;28;20167;-73
2023/09/07 03:40:23;;;;;;;3.55;2.95;;;;;;;15.91;55.11;102201.63;5027236;28;20116;-70
2023/09/07 03:42:49;;;;;;;6.15;3.53;;;;;;;15.87;55.57;102197.41;5036535;28;20507;-72
2023/09/07 03:45:15;;;;;;;6.05;3.58;;;;;;;15.83;55.35;102201.09;5044690;28;20155;-76
2023/09/07 03:47:41;;;;;;;5.25;3.90;;;;;;;15.89;55.51;102197.34;5039778;28;20169;-77
2023/09/07 03:50:09;;;;;;;5.13;3.20;;;;;;;15.96;55.06;102206.72;5024406;28;20092;-69
2023/09/07 03:52:35;;;;;;;4.47;3.58;;;;;;;15.96;54.90;102202.28;5016564;28;20131;-69
2023/09/07 03:55:03;;;;;;;4.65;3.40;;;;;;;15.99;54.84;102202.19;5039997;28;20033;-70
2023/09/07 03:57:29;;;;;;;6.63;3.88;;;;;;;16.04;54.48;102201.13;5041064;28;20045;-69
2023/09/07 03:59:56;;;;;;;4.85;3.40;;;;;;;16.10;54.33;102198.25;5049592;28;20435;-69
2023/09/07 04:02:23;;;;;;;4.80;3.20;;;;;;;16.07;54.05;102195.75;5041655;28;20048;-69
2023/09/07 04:04:53;;;;;;;3.05;2.65;;;;;;;16.01;54.28;102199.50;5038578;28;20041;-70
2023/09/07 04:07:19;;;;;;;5.25;3.30;;;;;;;16.07;53.90;102206.31;5040595;28;20048;-69
2023/09/07 04:09:45;;;;;;;4.53;3.33;;;;;;;16.04;54.05;102199.38;5030265;28;20471;-68
2023/09/07 04:12:12;;;;;;;4.80;3.15;;;;;;;16.08;53.64;102197.44;5019269;28;20028;-65
2023/09/07 04:14:38;;;;;;;6.63;3.30;;;;;;;16.11;53.39;102199.97;5025609;28;20511;-66
2023/09/07 04:17:04;;;;;;;4.60;3.17;;;;;;;16.04;53.78;102203.78;5048708;28;20029;-68
2023/09/07 04:19:30;;;;;;;4.07;3.15;;;;;;;15.94;53.92;102206.78;5015079;28;20049;-65
2023/09/07 04:21:57;;;;;;;5.72;3.25;;;;;;;15.95;53.86;102210.25;5041290;28;21541;-68
2023/09/07 04:24:23;;;;;;;5.53;3.30;;;;;;;15.91;54.21;102206.06;5039271;28;20049;-67
2023/09/07 04:26:52;;;;;;;3.72;3.10;;;;;;;15.82;54.30;102215.19;5029305;28;20039;-67
2023/09/07 04:29:18;;;;;;;5.20;3.33;;;;;;;15.92;53.98;102216.53;5022021;28;20145;-67
2023/09/07 04:31:43;;;;;;;4.53;3.63;;;;;;;15.81;54.13;102218.75;5038515;28;20700;-67
2023/09/07 04:34:09;;;;;;;3.78;3.47;;;;;;;15.85;54.37;102203.66;5048616;28;20044;-67
2023/09/07 04:36:35;;;;;;;10.32;4.05;;;;;;;15.79;54.23;102207.41;5007324;28;20044;-67
2023/09/07 04:39:03;;;;;;;4.53;4.07;;;;;;;15.79;53.93;102210.91;5029458;28;20059;-67
2023/09/07 04:41:29;;;;;;;5.43;3.50;;;;;;;15.78;54.22;102213.59;5029369;28;20037;-68
2023/09/07 04:43:57;;;;;;;4.07;3.20;;;;;;;15.69;54.60;102213.97;5028951;28;20041;-68
2023/09/07 04:46:23;;;;;;;4.10;3.63;;;;;;;15.72;54.40;102212.06;5030013;28;20113;-68
2023/09/07 04:48:48;;;;;;;4.03;3.50;;;;;;;15.61;54.80;102216.06;5043262;28;20329;-69
2023/09/07 04:51:16;;;;;;;7.68;4.05;;;;;;;15.66;54.85;102214.09;5041335;28;20127;-70
2023/09/07 04:53:43;;;;;;;4.20;3.28;;;;;;;15.68;54.74;102220.16;5025881;28;20049;-69
2023/09/07 04:56:08;;;;;;;5.30;3.47;;;;;;;15.74;54.48;102219.91;5028494;28;20033;-70
2023/09/07 04:58:35;;;;;;;4.00;3.60;;;;;;;15.72;54.73;102224.41;5023124;28;20485;-70
2023/09/07 05:01:04;;;;;;;5.38;3.90;;;;;;;15.66;54.83;102220.25;5050364;28;20064;-70
2023/09/07 05:03:31;;;;;;;4.22;3.83;;;;;;;15.67;54.86;102219.31;5028575;28;20147;-69
2023/09/07 05:05:56;;;;;;;3.95;3.55;;;;;;;15.66;54.70;102217.59;5039572;28;20757;-69
2023/09/07 05:08:24;;;;;;;5.05;3.97;;;;;;;15.69;54.61;102225.38;5020317;28;20044;-69
2023/09/07 05:11:03;;;;;;;5.65;3.92;;;;;;;15.67;54.90;102221.09;5018043;28;20047;-69
2023/09/07 05:13:30;;;;;;;4.97;3.95;;;;;;;15.68;54.76;102220.16;5024937;28;20056;-69
2023/09/07 05:16:00;;;;;;;4.50;3.97;;;;;;;15.63;54.83;102224.75;5021786;28;20074;-72
2023/09/07 05:18:25;;;;;;;10.20;4.55;;;;;;;15.64;54.93;102231.75;5053652;28;20045;-73
2023/09/07 05:20:53;;;;;;;6.32;4.93;;;;;;;15.63;54.76;102230.88;5001513;28;20085;-64
2023/09/07 05:23:21;;;;;;;5.25;4.75;;;;;;;15.64;54.95;102235.25;5029812;28;20036;-64
2023/09/07 05:25:50;;;;;;;9.48;4.65;;;;;;;15.70;54.42;102231.50;5026370;28;20933;-64
2023/09/07 05:28:16;;;;;;;7.63;3.78;;;;;;;15.59;54.91;102229.28;5027680;28;20525;-64
2023/09/07 05:30:43;;;;;;;8.25;3.85;;;;;;;15.66;54.71;102229.91;5023341;28;20463;-64
2023/09/07 05:33:13;;;;;;;4.93;4.40;;;;;;;15.72;54.51;102229.66;5021202;28;20140;-64
2023/09/07 05:35:39;;;;;;;8.55;4.47;;;;;;;15.83;54.11;102234.50;5016755;28;20045;-65
2023/09/07 05:38:05;;;;;;;4.80;4.40;;;;;;;15.89;53.68;102229.00;5014265;28;20052;-64
2023/09/07 05:40:36;;;;;;;5.22;4.13;;;;;;;15.88;53.88;102236.00;5029759;28;20036;-64
2023/09/07 05:43:03;;;;;;;7.97;4.40;;;;;;;15.87;53.95;102236.94;5035637;28;20064;-63
2023/09/07 05:45:31;;;;;;;6.90;4.32;;;;;;;15.99;53.49;102239.09;5020937;28;20039;-64
2023/09/07 05:47:57;;;;;;;5.03;4.30;;;;;;;16.07;53.07;102237.94;5018587;28;20047;-64
2023/09/07 05:50:23;;;;;;;6.72;4.80;;;;;;;15.97;53.20;102250.59;5021533;28;20360;-63
2023/09/07 05:52:49;;;;;;;5.95;3.33;;;;;;;16.09;53.19;102244.03;5023593;28;20040;-64
2023/09/07 05:55:15;;;;;;;10.70;5.80;;;;;;;16.17;52.77;102236.63;5026122;28;20033;-63
2023/09/07 05:57:40;;;;;;;5.50;4.75;;;;;;;16.20;52.88;102239.16;5019904;28;20044;-64
2023/09/07 06:00:06;;;;;;;8.63;4.68;;;;;;;16.29;52.44;102243.19;5039527;28;20550;-64
2023/09/07 06:02:39;;;;;;;7.18;4.80;;;;;;;17.14;50.67;102251.72;5034452;28;20041;-67
2023/09/07 06:05:07;;;;;;;15.07;4.95;;;;;;;19.19;45.80;102247.66;5021469;28;21026;-67
2023/09/07 06:07:33;;;;;;;9.48;3.85;;;;;;;20.81;41.76;102251.56;5026906;28;20036;-67
2023/09/07 06:09:58;;;;;;;4.75;3.85;;;;;;;22.04;38.94;102255.16;5024569;28;20033;-66
2023/09/07 06:12:25;;;;;;;6.25;4.30;;;;;;;23.12;36.53;102251.25;5019823;28;20027;-67
2023/09/07 06:14:51;;;;;;;3.90;3.40;;;;;;;23.18;36.09;102247.28;5019843;28;20875;-66
2023/09/07 06:17:17;;;;;;;4.85;4.35;;;;;;;23.54;34.57;102257.13;5037709;28;20483;-66
2023/09/07 06:19:44;;;;;;;3.83;3.22;;;;;;;24.13;33.68;102253.59;5023441;28;20593;-66
2023/09/07 06:22:10;;;;;;;7.00;3.17;;;;;;;24.50;33.94;102261.44;5022905;28;20115;-65
2023/09/07 06:24:35;;;;;;;3.40;3.10;;;;;;;25.32;32.16;102257.66;5023455;28;20083;-66
2023/09/07 06:27:01;;;;;;;4.05;3.10;;;;;;;26.39;30.80;102254.03;5023726;28;20025;-68
2023/09/07 06:29:27;;;;;;;7.47;4.07;;;;;;;26.66;30.54;102252.66;5034927;28;20044;-69
2023/09/07 06:31:52;;;;;;;4.85;2.55;;;;;;;26.94;29.38;102252.88;5017950;28;20821;-69
2023/09/07 06:34:20;;;;;;;6.25;3.08;;;;;;;27.01;29.97;102246.84;5021858;28;20040;-69
2023/09/07 06:36:45;;;;;;;4.05;3.25;;;;;;;27.34;28.92;102244.81;5021293;28;20667;-70
2023/09/07 06:39:11;;;;;;;6.13;3.28;;;;;;;27.25;29.34;102256.38;5036880;28;20047;-69
2023/09/07 06:41:36;;;;;;;5.15;3.08;;;;;;;27.56;28.90;102253.59;5016244;28;20025;-66
2023/09/07 06:44:03;;;;;;;3.13;2.83;;;;;;;28.03;28.39;102251.03;5038012;28;20128;-64
2023/09/07 06:46:29;;;;;;;3.10;2.80;;;;;;;28.27;27.45;102242.53;5036940;28;20052;-64
2023/09/07 06:48:57;;;;;;;3.50;3.20;;;;;;;28.41;27.33;102246.56;5019992;28;20572;-68
2023/09/07 06:51:23;;;;;;;4.90;2.97;;;;;;;28.65;27.60;102246.94;5020341;28;20751;-67
2023/09/07 06:53:50;;;;;;;8.23;3.40;;;;;;;28.77;27.20;102249.44;5033667;28;20113;-68
2023/09/07 06:56:16;;;;;;;5.97;2.72;;;;;;;29.07;26.83;102257.19;5023392;28;20025;-65
2023/09/07 06:58:42;;;;;;;5.70;3.50;;;;;;;29.67;25.98;102258.53;5003597;28;20033;-64
2023/09/07 07:01:08;;;;;;;6.32;3.72;;;;;;;29.88;25.67;102256.31;5035871;28;20032;-64
2023/09/07 07:03:34;;;;;;;7.03;3.67;;;;;;;30.47;24.36;102271.91;5019873;28;20048;-64
2023/09/07 07:06:02;;;;;;;8.15;3.78;;;;;;;30.11;25.67;102274.72;5027114;28;20028;-66
2023/09/07 07:08:28;;;;;;;3.45;3.13;;;;;;;30.45;25.42;102269.38;5016900;28;20414;-64
2023/09/07 07:10:53;;;;;;;6.75;3.53;;;;;;;30.36;24.78;102268.47;5023265;28;20145;-69
2023/09/07 07:13:19;;;;;;;5.32;3.08;;;;;;;30.90;24.24;102272.81;5018966;28;20150;-66
2023/09/07 07:15:45;;;;;;;4.43;3.05;;;;;;;30.26;24.95;102269.59;5012180;28;20077;-67
2023/09/07 07:18:11;;;;;;;3.88;3.15;;;;;;;30.14;25.65;102279.81;5037801;28;20045;-68
2023/09/07 07:20:43;;;;;;;5.03;3.90;;;;;;;30.03;25.52;102288.13;5023210;28;20112;-70
2023/09/07 07:23:10;;;;;;;4.03;3.05;;;;;;;30.31;25.87;102283.44;5036542;28;20075;-70
2023/09/07 07:25:36;;;;;;;5.13;2.38;;;;;;;31.04;24.50;102283.00;5037582;28;20094;-64
2023/09/07 07:28:06;;;;;;;4.03;3.05;;;;;;;30.56;24.56;102292.56;5031438;28;20044;-65
2023/09/07 07:30:34;;;;;;;4.50;2.97;;;;;;;30.33;24.82;102285.00;5018477;28;20555;-66
2023/09/07 07:33:00;;;;;;;4.55;2.92;;;;;;;31.14;23.47;102281.00;5015456;28;20033;-67
2023/09/07 07:35:26;;;;;;;4.68;2.90;;;;;;;30.69;25.21;102284.00;5003908;28;20048;-66
2023/09/07 07:37:52;;;;;;;3.28;2.53;;;;;;;31.38;24.37;102282.91;5019833;28;20064;-66
2023/09/07 07:40:18;;;;;;;5.63;3.58;;;;;;;31.76;23.38;102282.44;5020436;28;20488;-66
2023/09/07 07:42:46;;;;;;;5.70;3.08;;;;;;;31.46;23.27;102284.78;5016847;28;20040;-66
2023/09/07 07:45:13;;;;;;;5.07;3.10;;;;;;;31.12;24.02;102293.00;4988810;28;20404;-66
2023/09/07 07:47:41;;;;;;;2.72;2.53;;;;;;;31.16;23.93;102291.66;4993407;28;20040;-65
2023/09/07 07:50:07;;;;;;;3.33;3.00;;;;;;;32.24;22.94;102288.84;5020838;28;20043;-66
2023/09/07 07:52:33;;;;;;;2.97;2.60;;;;;;;32.03;23.48;102286.72;5017712;28;20198;-66
2023/09/07 07:54:59;;;;;;;2.88;2.13;;;;;;;32.58;22.51;102287.78;5020965;28;20044;-66
2023/09/07 07:57:25;;;;;;;4.28;2.10;;;;;;;32.93;22.27;102294.59;5021194;28;20025;-65
2023/09/07 07:59:50;;;;;;;3.72;2.88;;;;;;;33.33;22.11;102289.16;5037187;28;20058;-66
2023/09/07 08:02:16;;;;;;;6.22;2.50;;;;;;;34.04;21.01;102285.19;5016758;28;20036;-66
2023/09/07 08:04:42;;;;;;;4.60;2.75;;;;;;;33.48;21.98;102287.31;5038331;28;20021;-66
2023/09/07 08:07:08;;;;;;;4.57;3.40;;;;;;;33.60;21.64;102280.47;5021133;28;20196;-66
2023/09/07 08:09:35;;;;;;;5.15;2.42;;;;;;;33.59;21.67;102277.91;5021256;28;20042;-66
2023/09/07 08:12:04;;;;;;;5.70;2.95;;;;;;;33.06;22.19;102277.78;5038241;28;20556;-66
2023/09/07 08:14:31;;;;;;;6.43;2.50;;;;;;;32.63;22.30;102271.84;5037266;28;20160;-65
2023/09/07 08:16:57;;;;;;;4.95;2.75;;;;;;;31.86;23.49;102274.19;5022936;28;20687;-66
2023/09/07 08:19:24;;;;;;;3.25;2.30;;;;;;;31.81;23.35;102274.69;5018854;28;20558;-66
2023/09/07 08:21:50;;;;;;;7.32;2.90;;;;;;;31.89;22.60;102271.97;5014959;28;20114;-66
2023/09/07 08:24:16;;;;;;;5.57;2.20;;;;;;;31.97;22.41;102271.16;5021299;28;20068;-68
2023/09/07 08:26:42;;;;;;;7.15;2.42;;;;;;;31.69;22.38;102270.63;5021847;28;20032;-65
2023/09/07 08:29:09;;;;;;;5.13;2.30;;;;;;;30.87;23.09;102273.09;5025276;28;20123;-64
2023/09/07 08:31:35;;;;;;;2.45;2.25;;;;;;;30.96;23.37;102273.00;5035864;28;20123;-64
2023/09/07 08:34:03;;;;;;;3.58;2.38;;;;;;;30.21;23.45;102274.63;5037317;28;20089;-64
2023/09/07 08:36:32;;;;;;;2.47;2.00;;;;;;;29.55;24.58;102265.94;5021078;28;20063;-64
2023/09/07 08:39:00;;;;;;;5.13;2.83;;;;;;;29.94;23.83;102266.47;5037137;28;20053;-64
2023/09/07 08:41:27;;;;;;;3.70;2.55;;;;;;;29.50;24.58;102269.09;5035259;28;20033;-64
2023/09/07 08:43:57;;;;;;;2.22;1.98;;;;;;;29.73;24.61;102268.69;5024910;28;20727;-64
2023/09/07 08:46:23;;;;;;;2.92;2.53;;;;;;;28.44;26.20;102270.50;5037606;28;20862;-65
2023/09/07 08:48:49;;;;;;;2.28;2.05;;;;;;;28.30;26.40;102266.41;5035531;28;20051;-64
2023/09/07 08:51:17;;;;;;;7.30;3.08;;;;;;;28.19;26.62;102270.16;5025300;28;20051;-64
2023/09/07 08:53:49;;;;;;;4.45;2.70;;;;;;;28.31;26.70;102271.66;5038073;28;20033;-64
2023/09/07 08:56:16;;;;;;;3.42;3.08;;;;;;;27.70;27.39;102278.22;5025814;28;20276;-64
2023/09/07 08:58:41;;;;;;;2.83;2.30;;;;;;;27.35;28.33;102278.72;5037689;28;20240;-64
2023/09/07 09:01:08;;;;;;;2.22;2.03;;;;;;;26.96;28.41;102283.97;5036644;28;20032;-64
2023/09/07 09:03:42;;;;;;;7.72;2.60;;;;;;;26.64;29.57;102278.75;5037948;28;20124;-64
2023/09/07 09:06:08;;;;;;;3.65;2.78;;;;;;;26.56;29.35;102282.06;5019803;28;20558;-64
2023/09/07 09:09:07;;;;;;;5.93;2.60;;;;;;;26.49;30.15;102279.09;5003562;28;20142;-64
2023/09/07 09:11:32;;;;;;;3.75;2.60;;;;;;;26.06;30.51;102280.06;5035409;28;20181;-64
2023/09/07 09:13:58;;;;;;;4.10;3.05;;;;;;;26.26;30.35;102277.53;5022509;28;20044;-64
2023/09/07 09:16:26;;;;;;;5.25;3.80;;;;;;;26.84;30.30;102280.53;5034034;28;20058;-64
2023/09/07 09:18:55;;;;;;;4.82;3.63;;;;;;;27.15;29.84;102277.84;5033681;28;20063;-64
2023/09/07 09:21:22;;;;;;;5.07;2.88;;;;;;;27.20;29.77;102274.72;5033810;28;20124;-65
2023/09/07 09:23:54;;;;;;;4.72;2.92;;;;;;;27.23;30.08;102274.47;5032426;28;20089;-61
2023/09/07 09:26:20;;;;;;;4.40;2.88;;;;;;;27.28;29.61;102265.00;5032589;28;20176;-62
2023/09/07 09:28:46;;;;;;;5.35;3.72;;;;;;;27.31;29.44;102266.56;5029319;28;20102;-62
2023/09/07 09:31:12;;;;;;;7.70;2.65;;;;;;;27.16;31.02;102267.94;5034351;28;20039;-62
2023/09/07 09:33:42;;;;;;;8.30;2.97;;;;;;;27.09;29.92;102256.88;5031955;28;20419;-63
2023/09/07 09:36:09;;;;;;;2.67;2.17;;;;;;;27.13;30.09;102262.84;5024841;28;20044;-63
2023/09/07 09:38:35;;;;;;;4.82;3.17;;;;;;;27.36;29.86;102258.94;5032000;28;21238;-62
2023/09/07 09:41:03;;;;;;;5.43;3.30;;;;;;;27.24;29.54;102265.44;5036509;28;20078;-62
2023/09/07 09:43:28;;;;;;;7.20;3.08;;;;;;;26.85;30.72;102266.16;5029512;28;20072;-62
2023/09/07 09:45:55;;;;;;;5.35;2.60;;;;;;;27.20;30.80;102251.41;5032757;28;20032;-61
2023/09/07 09:48:20;;;;;;;5.68;3.15;;;;;;;27.51;29.74;102257.53;5031750;28;20044;-62
2023/09/07 09:50:49;;;;;;;6.53;2.42;;;;;;;27.87;29.69;102257.00;5034459;28;20172;-61
2023/09/07 09:53:18;;;;;;;7.50;3.03;;;;;;;27.21;30.10;102252.28;5030490;28;20095;-62
2023/09/07 09:55:47;;;;;;;6.55;4.03;;;;;;;27.36;30.09;102248.19;5035487;28;20052;-63
2023/09/07 09:58:17;;;;;;;4.60;3.05;;;;;;;27.65;29.69;102253.63;5022281;28;20159;-64
2023/09/07 10:00:50;;;;;;;5.80;3.15;;;;;;;27.56;30.03;102245.53;5032545;28;20040;-63
2023/09/07 10:03:32;;;;;;;2.80;2.60;;;;;;;28.02;30.17;102241.28;5018669;28;20045;-63
2023/09/07 10:06:11;;;;;;;4.38;2.80;;;;;;;27.70;30.20;102240.63;5034590;28;20044;-63
2023/09/07 10:08:37;;;;;;;4.65;2.70;;;;;;;27.39;30.55;102239.88;5010140;28;20084;-64
2023/09/07 10:11:09;;;;;;;4.28;2.88;;;;;;;27.31;30.54;102231.66;5035751;28;20499;-63
2023/09/07 10:13:35;;;;;;;4.00;2.72;;;;;;;27.22;30.26;102236.03;5016660;28;20283;-64
2023/09/07 10:16:09;;;;;;;4.43;3.17;;;;;;;27.48;31.25;102233.66;5033958;28;20114;-64
2023/09/07 10:18:38;;;;;;;5.03;2.80;;;;;;;27.32;30.54;102233.38;5030260;28;20250;-64
2023/09/07 10:21:05;;;;;;;6.82;2.80;;;;;;;27.53;30.08;102227.88;5016727;28;20036;-64
2023/09/07 10:23:38;;;;;;;7.00;2.80;;;;;;;27.50;30.58;102229.00;5028380;28;20147;-65
2023/09/07 10:26:05;;;;;;;3.35;2.92;;;;;;;27.68;29.99;102226.47;5032395;28;20029;-63
2023/09/07 10:28:31;;;;;;;3.22;2.50;;;;;;;27.42;29.95;102220.78;5032729;28;20060;-64
2023/09/07 10:31:04;;;;;;;5.93;2.95;;;;;;;27.01;31.33;102222.69;5039260;28;20091;-64
2023/09/07 10:33:33;;;;;;;4.85;3.13;;;;;;;27.14;30.65;102222.47;5016508;28;20052;-64
2023/09/07 10:35:58;;;;;;;4.03;2.40;;;;;;;27.34;30.28;102217.97;5032339;28;20471;-65
2023/09/07 10:38:24;;;;;;;2.72;2.40;;;;;;;27.09;30.98;102222.00;5032024;28;20110;-65
2023/09/07 10:40:57;;;;;;;4.50;3.20;;;;;;;27.69;30.10;102221.94;5032393;28;20536;-65
2023/09/07 10:43:26;;;;;;;4.03;2.47;;;;;;;27.84;29.98;102225.91;5032531;28;20120;-65
2023/09/07 10:45:52;;;;;;;5.35;2.55;;;;;;;27.57;30.42;102212.34;5032787;28;20040;-66
2023/09/07 10:48:18;;;;;;;3.58;2.67;;;;;;;27.88;31.15;102211.19;5032689;28;20081;-66
2023/09/07 10:50:45;;;;;;;3.17;2.88;;;;;;;28.24;29.36;102208.72;5032608;28;20025;-66
2023/09/07 10:53:14;;;;;;;6.07;2.53;;;;;;;27.84;29.36;102203.56;5033788;28;20237;-64
2023/09/07 10:55:45;;;;;;;4.10;2.33;;;;;;;27.95;28.87;102207.94;5032085;28;20128;-65
2023/09/07 10:58:11;;;;;;;4.78;2.35;;;;;;;28.49;29.20;102203.69;5044282;28;20314;-65
2023/09/07 11:00:37;;;;;;;4.30;2.63;;;;;;;28.63;29.24;102203.19;5030450;28;21096;-64
2023/09/07 11:03:10;;;;;;;4.13;2.40;;;;;;;28.36;28.57;102193.25;5035602;28;20507;-64
2023/09/07 11:05:37;;;;;;;4.78;3.17;;;;;;;28.54;27.83;102201.38;5039237;28;20415;-64
2023/09/07 11:08:06;;;;;;;3.97;2.65;;;;;;;28.25;28.42;102206.88;5036789;28;20708;-64
2023/09/07 11:10:33;;;;;;;6.20;2.40;;;;;;;28.17;28.07;102196.88;5033529;28;20037;-65
2023/09/07 11:13:03;;;;;;;5.90;2.80;;;;;;;28.66;27.81;102202.06;5037618;28;20041;-66
2023/09/07 11:15:29;;;;;;;2.88;2.47;;;;;;;28.25;28.83;102196.97;5037054;28;20043;-65
2023/09/07 11:17:55;;;;;;;6.97;2.53;;;;;;;28.30;28.67;102194.69;5044488;28;20051;-65
2023/09/07 11:20:24;;;;;;;3.53;2.67;;;;;;;28.18;29.30;102190.50;5029233;28;20065;-64
2023/09/07 11:22:50;;;;;;;3.30;3.00;;;;;;;28.37;28.31;102183.34;5036076;28;20114;-65